createdAt,value
2023-03-10T00:01:41.837Z,43.22
2023-03-10T00:04:45.079Z,53.42
2023-03-10T00:07:50.277Z,58.25
2023-03-10T00:10:54.860Z,46.97
2023-03-10T00:13:58.044Z,47.80
2023-03-10T00:17:01.181Z,54.63
2023-03-10T00:20:07.965Z,49.63
2023-03-10T00:23:11.488Z,50.05
2023-03-10T00:26:18.200Z,55.75
2023-03-10T00:29:22.140Z,45.92
2023-03-10T00:32:25.372Z,53.75
2023-03-10T00:35:29.041Z,49.72
2023-03-10T00:38:32.711Z,49.85
2023-03-10T00:41:39.153Z,54.78
2023-03-10T00:44:42.404Z,50.53
2023-03-10T00:47:46.252Z,56.05
2023-03-10T00:50:49.576Z,66.28
2023-03-10T00:53:53.124Z,60.50
2023-03-10T00:56:57.697Z,50.72
2023-03-10T01:00:00.894Z,52.25
2023-03-10T01:03:04.143Z,54.25
2023-03-10T01:06:07.845Z,50.97
2023-03-10T01:09:11.318Z,57.30
2023-03-10T01:12:16.068Z,54.42
2023-03-10T01:15:19.986Z,54.40
2023-03-10T01:18:23.588Z,47.97
2023-03-10T01:21:29.607Z,53.95
2023-03-10T01:24:32.802Z,52.03
2023-03-10T01:27:37.418Z,53.58
2023-03-10T01:30:42.554Z,48.08
2023-03-10T01:33:47.539Z,51.80
2023-03-10T01:36:50.789Z,55.92
2023-03-10T01:39:53.945Z,53.30
2023-03-10T01:43:29.255Z,57.95
2023-03-10T01:46:47.779Z,60.65
2023-03-10T01:50:00.567Z,55.33
2023-03-10T01:53:03.967Z,60.78
2023-03-10T01:56:07.967Z,67.60
2023-03-10T01:59:13.448Z,66.40
2023-03-10T02:02:17.315Z,61.17
2023-03-10T02:05:21.862Z,63.53
2023-03-10T02:08:27.114Z,61.03
2023-03-10T02:11:31.611Z,67.95
2023-03-10T02:14:36.763Z,60.10
2023-03-10T02:17:41.757Z,65.72
2023-03-10T02:20:50.626Z,66.63
2023-03-10T02:24:01.928Z,58.50
2023-03-10T02:27:17.449Z,53.67
2023-03-10T02:30:25.847Z,56.42
2023-03-10T02:33:32.444Z,57.60
2023-03-10T02:36:37.195Z,53.65
2023-03-10T02:39:40.681Z,51.75
2023-03-10T02:42:45.544Z,47.83
2023-03-10T02:45:51.776Z,48.40
2023-03-10T02:48:55.740Z,47.90
2023-03-10T02:52:11.212Z,51.03
2023-03-10T02:55:16.392Z,50.30
2023-03-10T02:58:23.364Z,40.97
2023-03-10T03:01:30.331Z,44.58
2023-03-10T03:04:34.103Z,43.70
2023-03-10T03:07:37.610Z,44.70
2023-03-10T03:10:42.906Z,45.70
2023-03-10T03:13:48.882Z,42.63
2023-03-10T03:16:52.394Z,41.42
2023-03-10T03:19:55.816Z,43.67
2023-03-10T03:23:00.791Z,41.72
2023-03-10T03:26:04.478Z,40.78
2023-03-10T03:29:11.966Z,45.95
2023-03-10T03:32:16.150Z,43.08
2023-03-10T03:35:22.194Z,45.72
2023-03-10T03:38:25.810Z,44.65
2023-03-10T03:41:29.388Z,43.65
2023-03-10T03:44:34.289Z,42.05
2023-03-10T03:47:37.974Z,53.90
2023-03-10T03:50:41.603Z,52.58
2023-03-10T03:53:54.420Z,52.45
2023-03-10T03:56:58.229Z,59.13
2023-03-10T04:00:04.271Z,55.58
2023-03-10T04:03:15.802Z,61.00
2023-03-10T04:06:19.399Z,61.35
2023-03-10T04:09:24.878Z,66.55
2023-03-10T04:12:29.604Z,63.45
2023-03-10T04:15:36.419Z,62.92
2023-03-10T04:18:40.220Z,63.63
2023-03-10T04:21:45.944Z,69.30
2023-03-10T04:24:49.968Z,64.38
2023-03-10T04:27:53.313Z,63.58
2023-03-10T04:30:58.056Z,64.13
2023-03-10T04:34:05.095Z,63.75
2023-03-10T04:37:09.041Z,66.60
2023-03-10T04:40:14.668Z,65.47
2023-03-10T04:43:18.341Z,64.25
2023-03-10T04:46:23.120Z,65.32
2023-03-10T04:49:26.953Z,77.20
2023-03-10T04:52:30.359Z,68.35
2023-03-10T04:55:33.859Z,69.32
2023-03-10T04:58:39.244Z,72.57
2023-03-10T05:01:44.781Z,65.13
2023-03-10T05:04:48.181Z,73.80
2023-03-10T05:07:51.559Z,75.00
2023-03-10T05:10:56.569Z,75.90
2023-03-10T05:14:00.190Z,78.88
2023-03-10T05:17:05.174Z,93.55
2023-03-10T05:20:09.900Z,96.32
2023-03-10T05:23:14.133Z,83.90
2023-03-10T05:26:18.133Z,77.60
2023-03-10T05:29:21.939Z,80.10
2023-03-10T05:32:31.510Z,72.20
2023-03-10T05:35:34.897Z,76.05
2023-03-10T05:38:39.039Z,76.15
2023-03-10T05:41:44.686Z,74.45
2023-03-10T05:44:48.389Z,77.07
2023-03-10T05:47:53.293Z,75.70
2023-03-10T05:51:01.367Z,72.90
2023-03-10T05:54:06.433Z,83.00
2023-03-10T05:57:11.257Z,75.88
2023-03-10T06:00:17.332Z,80.75
2023-03-10T06:03:33.093Z,76.10
2023-03-10T06:06:36.644Z,82.75
2023-03-10T06:09:39.922Z,71.93
2023-03-10T06:12:43.163Z,70.40
2023-03-10T06:15:48.786Z,69.25
2023-03-10T06:18:56.226Z,71.53
2023-03-10T06:21:59.463Z,68.25
2023-03-10T06:25:02.844Z,67.72
2023-03-10T06:28:08.481Z,62.92
2023-03-10T06:31:18.533Z,59.83
2023-03-10T06:34:23.160Z,61.30
2023-03-10T06:37:26.906Z,61.63
2023-03-10T06:40:30.163Z,56.90
2023-03-10T06:43:33.622Z,56.90
2023-03-10T06:46:38.358Z,58.10
2023-03-10T06:49:43.548Z,52.97
2023-03-10T06:52:47.068Z,51.10
2023-03-10T06:55:58.768Z,49.20
2023-03-10T06:59:02.287Z,49.90
2023-03-10T07:02:05.793Z,55.53
2023-03-10T07:05:13.305Z,66.05
2023-03-10T07:08:16.481Z,80.72
2023-03-10T07:11:20.329Z,88.80
2023-03-10T07:14:27.807Z,84.40
2023-03-10T07:17:31.079Z,80.00
2023-03-10T07:20:41.269Z,68.03
2023-03-10T07:23:44.625Z,59.95
2023-03-10T07:26:47.782Z,52.35
2023-03-10T07:29:51.009Z,48.03
2023-03-10T07:32:54.240Z,44.88
2023-03-10T07:36:00.610Z,41.00
2023-03-10T07:39:04.029Z,42.95
2023-03-10T07:42:07.875Z,40.05
2023-03-10T07:45:12.265Z,41.47
2023-03-10T07:48:15.425Z,38.55
2023-03-10T07:51:20.268Z,44.08
2023-03-10T07:54:23.425Z,69.00
2023-03-10T07:57:26.604Z,45.53
2023-03-10T08:00:29.915Z,44.47
2023-03-10T08:03:34.138Z,40.83
2023-03-10T08:06:38.990Z,41.17
2023-03-10T08:09:42.631Z,34.40
2023-03-10T08:12:45.793Z,37.92
2023-03-10T08:15:48.965Z,37.42
2023-03-10T08:18:53.495Z,32.80
2023-03-10T08:21:58.823Z,39.53
2023-03-10T08:25:02.137Z,35.38
2023-03-10T08:28:05.613Z,36.35
2023-03-10T08:31:10.395Z,34.00
2023-03-10T08:34:14.424Z,33.22
2023-03-10T08:37:18.958Z,35.25
2023-03-10T08:40:22.391Z,31.20
2023-03-10T08:43:25.810Z,40.58
2023-03-10T08:46:31.651Z,31.60
2023-03-10T08:49:34.846Z,26.85
2023-03-10T08:52:39.823Z,27.50
2023-03-10T08:55:43.101Z,29.30
2023-03-10T08:58:46.508Z,23.13
2023-03-10T09:01:49.790Z,22.33
2023-03-10T09:04:53.301Z,23.77
2023-03-10T09:07:57.964Z,28.77
2023-03-10T09:11:02.226Z,22.73
2023-03-10T09:14:05.899Z,19.70
2023-03-10T09:17:11.788Z,18.15
2023-03-10T09:20:15.855Z,16.58
2023-03-10T09:23:20.882Z,16.77
2023-03-10T09:26:24.275Z,18.65
2023-03-10T09:29:42.010Z,12.80
2023-03-10T09:32:45.869Z,12.38
2023-03-10T09:36:05.342Z,17.90
2023-03-10T09:39:10.374Z,9.65
2023-03-10T09:42:38.456Z,17.75
2023-03-10T09:45:48.199Z,22.63
2023-03-10T09:48:56.797Z,33.00
2023-03-10T09:52:02.184Z,31.40
2023-03-10T09:55:16.305Z,35.58
2023-03-10T09:58:32.040Z,47.70
2023-03-10T10:01:36.356Z,21.88
2023-03-10T10:04:41.414Z,10.55
2023-03-10T10:07:50.308Z,14.80
2023-03-10T10:10:57.088Z,14.90
2023-03-10T10:14:28.450Z,8.77
2023-03-10T10:17:53.042Z,13.07
2023-03-10T10:21:01.157Z,15.05
2023-03-10T10:24:05.053Z,101.70
2023-03-10T10:27:10.422Z,149.82
2023-03-10T10:30:35.430Z,244.80
2023-03-10T10:33:54.752Z,346.25
2023-03-10T10:36:58.232Z,254.33
2023-03-10T10:40:02.036Z,265.38
2023-03-10T10:43:07.718Z,66.95
2023-03-10T10:46:13.654Z,105.97
2023-03-10T10:49:23.818Z,21.98
2023-03-10T10:52:27.746Z,9.93
2023-03-10T10:55:34.682Z,10.98
2023-03-10T10:58:41.474Z,10.02
2023-03-10T11:01:50.585Z,10.48
2023-03-10T11:04:53.780Z,8.38
2023-03-10T11:07:58.251Z,9.30
2023-03-10T11:11:06.524Z,7.50
2023-03-10T11:14:36.690Z,8.65
2023-03-10T11:17:44.280Z,21.15
2023-03-10T11:20:56.488Z,53.83
2023-03-10T11:24:09.290Z,21.50
2023-03-10T11:27:19.826Z,14.52
2023-03-10T11:30:31.721Z,16.95
2023-03-10T11:33:41.498Z,11.52
2023-03-10T11:36:56.809Z,10.27
2023-03-10T11:40:08.224Z,10.02
2023-03-10T11:43:22.145Z,8.70
2023-03-10T11:46:32.178Z,8.73
2023-03-10T11:49:40.136Z,9.10
2023-03-10T11:52:44.355Z,6.72
2023-03-10T11:55:49.106Z,9.35
2023-03-10T11:58:55.867Z,6.57
2023-03-10T12:02:06.588Z,7.82
2023-03-10T12:05:16.393Z,8.27
2023-03-10T12:08:23.744Z,7.10
2023-03-10T12:11:30.104Z,7.90
2023-03-10T12:14:35.086Z,8.23
2023-03-10T12:17:41.729Z,8.57
2023-03-10T12:20:44.992Z,5.50
2023-03-10T12:23:50.246Z,10.23
2023-03-10T12:27:05.339Z,10.52
2023-03-10T12:30:41.949Z,7.65
2023-03-10T12:33:50.372Z,6.70
2023-03-10T12:36:54.982Z,13.05
2023-03-10T12:39:58.239Z,8.82
2023-03-10T12:43:47.763Z,7.78
2023-03-10T12:46:54.426Z,6.90
2023-03-10T12:50:06.452Z,7.13
2023-03-10T12:53:29.948Z,5.82
2023-03-10T12:56:36.814Z,10.98
2023-03-10T12:59:43.256Z,5.65
2023-03-10T13:02:53.683Z,5.00
2023-03-10T13:06:04.977Z,7.40
2023-03-10T13:09:18.964Z,9.40
2023-03-10T13:12:30.900Z,7.47
2023-03-10T13:15:36.142Z,5.82
2023-03-10T13:18:39.336Z,4.22
2023-03-10T13:21:45.938Z,9.00
2023-03-10T13:24:58.865Z,4.68
2023-03-10T13:28:10.199Z,4.93
2023-03-10T13:31:21.218Z,7.85
2023-03-10T13:34:29.151Z,10.00
2023-03-10T13:37:33.777Z,6.13
2023-03-10T13:40:38.828Z,7.20
2023-03-10T13:43:43.857Z,7.30
2023-03-10T13:46:52.412Z,7.60
2023-03-10T13:49:58.576Z,6.45
2023-03-10T13:53:04.469Z,5.57
2023-03-10T13:56:18.151Z,8.90
2023-03-10T13:59:25.381Z,5.05
2023-03-10T14:02:34.201Z,6.90
2023-03-10T14:05:50.353Z,5.95
2023-03-10T14:08:55.735Z,6.13
2023-03-10T14:11:59.283Z,7.72
2023-03-10T14:15:11.614Z,5.03
2023-03-10T14:18:19.697Z,6.10
2023-03-10T14:21:33.400Z,5.43
2023-03-10T14:24:38.119Z,8.50
2023-03-10T14:27:45.498Z,7.70
2023-03-10T14:30:48.894Z,10.35
2023-03-10T14:33:52.979Z,11.05
2023-03-10T14:36:56.271Z,22.40
2023-03-10T14:40:01.001Z,35.15
2023-03-10T14:43:04.391Z,42.47
2023-03-10T14:46:08.511Z,38.90
2023-03-10T14:49:16.005Z,40.50
2023-03-10T14:52:20.390Z,29.38
2023-03-10T14:55:25.599Z,14.00
2023-03-10T14:58:31.234Z,11.95
2023-03-10T15:01:34.988Z,16.02
2023-03-10T15:04:39.139Z,61.38
2023-03-10T15:07:42.768Z,23.73
2023-03-10T15:10:50.684Z,15.73
2023-03-10T15:13:54.235Z,24.10
2023-03-10T15:16:58.358Z,11.88
2023-03-10T15:20:01.713Z,16.92
2023-03-10T15:23:05.248Z,14.07
2023-03-10T15:26:12.955Z,55.30
2023-03-10T15:29:17.362Z,23.23
2023-03-10T15:32:20.921Z,38.95
2023-03-10T15:35:25.237Z,23.23
2023-03-10T15:38:29.194Z,40.35
2023-03-10T15:41:36.842Z,36.70
2023-03-10T15:44:41.296Z,50.97
2023-03-10T15:47:44.992Z,58.25
2023-03-10T15:50:48.664Z,35.70
2023-03-10T15:53:53.095Z,18.58
2023-03-10T15:56:57.993Z,42.08
2023-03-10T16:00:03.954Z,29.45
2023-03-10T16:03:08.543Z,29.08
2023-03-10T16:06:12.868Z,19.10
2023-03-10T16:09:16.235Z,30.70
2023-03-10T16:12:22.386Z,44.10
2023-03-10T16:15:25.973Z,25.95
2023-03-10T16:18:29.512Z,27.23
2023-03-10T16:21:32.878Z,39.22
2023-03-10T16:24:36.507Z,84.32
2023-03-10T16:27:41.669Z,38.88
2023-03-10T16:30:49.744Z,37.88
2023-03-10T16:33:55.497Z,57.63
2023-03-10T16:36:59.069Z,46.90
2023-03-10T16:40:03.313Z,17.77
2023-03-10T16:43:08.045Z,8.90
2023-03-10T16:46:13.575Z,11.00
2023-03-10T16:49:18.194Z,9.38
2023-03-10T16:52:21.975Z,15.40
2023-03-10T16:55:25.443Z,25.02
2023-03-10T16:58:30.964Z,11.00
2023-03-10T17:01:35.501Z,12.65
2023-03-10T17:04:39.846Z,14.35
2023-03-10T17:07:54.624Z,15.40
2023-03-10T17:11:01.737Z,20.25
2023-03-10T17:14:08.794Z,20.33
2023-03-10T17:17:14.327Z,104.97
2023-03-10T17:20:20.178Z,113.30
2023-03-10T17:23:24.123Z,320.85
2023-03-10T17:26:27.516Z,104.88
2023-03-10T17:29:32.602Z,509.48
2023-03-10T17:32:37.084Z,686.63
2023-03-10T17:35:40.817Z,216.82
2023-03-10T17:38:46.401Z,218.25
2023-03-10T17:41:50.569Z,115.00
2023-03-10T17:44:55.191Z,308.10
2023-03-10T17:47:58.592Z,507.60
2023-03-10T17:51:04.390Z,616.60
2023-03-10T17:54:08.017Z,65.93
2023-03-10T17:57:12.385Z,67.05
2023-03-10T18:00:19.506Z,81.43
2023-03-10T18:03:22.905Z,76.50
2023-03-10T18:06:27.931Z,165.27
2023-03-10T18:09:31.456Z,115.32
2023-03-10T18:12:37.576Z,101.32
2023-03-10T18:15:42.536Z,103.32
2023-03-10T18:18:46.599Z,84.55
2023-03-10T18:21:51.110Z,95.65
2023-03-10T18:24:56.449Z,92.75
2023-03-10T18:28:00.263Z,85.68
2023-03-10T18:31:08.389Z,109.70
2023-03-10T18:34:13.604Z,98.63
2023-03-10T18:37:17.386Z,86.07
2023-03-10T18:40:21.680Z,105.55
2023-03-10T18:43:26.805Z,103.18
2023-03-10T18:46:33.254Z,117.32
2023-03-10T18:49:37.412Z,92.47
2023-03-10T18:52:41.119Z,112.78
2023-03-10T18:55:46.239Z,93.13
2023-03-10T18:58:49.932Z,108.53
2023-03-10T19:01:58.716Z,106.65
2023-03-10T19:05:05.179Z,98.15
2023-03-10T19:08:10.803Z,182.25
2023-03-10T19:11:15.473Z,113.82
2023-03-10T19:14:20.297Z,137.55
2023-03-10T19:17:26.648Z,104.40
2023-03-10T19:20:30.085Z,93.38
2023-03-10T19:23:35.512Z,97.55
2023-03-10T19:26:38.855Z,208.80
2023-03-10T19:29:42.274Z,118.25
2023-03-10T19:32:47.720Z,133.68
2023-03-10T19:35:51.531Z,187.15
2023-03-10T19:38:55.034Z,155.02
2023-03-10T19:41:58.605Z,196.63
2023-03-10T19:45:02.064Z,166.48
2023-03-10T19:48:07.356Z,145.02
2023-03-10T19:51:17.520Z,223.80
2023-03-10T19:54:20.902Z,188.15
2023-03-10T19:57:24.601Z,116.30
2023-03-10T20:00:31.396Z,114.38
2023-03-10T20:03:36.339Z,105.57
2023-03-10T20:06:39.569Z,139.80
2023-03-10T20:09:45.821Z,208.82
2023-03-10T20:12:51.137Z,105.22
2023-03-10T20:15:54.574Z,75.97
2023-03-10T20:19:00.894Z,105.78
2023-03-10T20:22:04.889Z,118.32
2023-03-10T20:25:10.456Z,91.05
2023-03-10T20:28:14.298Z,76.60
2023-03-10T20:31:20.497Z,83.43
2023-03-10T20:34:25.868Z,71.80
2023-03-10T20:37:29.970Z,68.13
2023-03-10T20:40:34.987Z,75.05
2023-03-10T20:43:38.366Z,67.90
2023-03-10T20:46:44.806Z,69.03
2023-03-10T20:49:51.330Z,68.50
2023-03-10T20:52:54.936Z,72.07
2023-03-10T20:55:59.379Z,69.38
2023-03-10T20:59:03.378Z,62.55
2023-03-10T21:02:08.243Z,54.10
2023-03-10T21:05:14.078Z,58.45
2023-03-10T21:08:17.570Z,57.28
2023-03-10T21:11:21.713Z,51.63
2023-03-10T21:14:25.446Z,52.72
2023-03-10T21:17:29.386Z,52.55
2023-03-10T21:20:34.512Z,56.55
2023-03-10T21:23:39.585Z,105.70
2023-03-10T21:26:44.790Z,70.93
2023-03-10T21:29:49.555Z,67.40
2023-03-10T21:32:52.905Z,66.47
2023-03-10T21:35:58.265Z,57.08
2023-03-10T21:39:03.002Z,71.32
2023-03-10T21:42:07.446Z,67.68
2023-03-10T21:45:14.282Z,58.70
2023-03-10T21:48:18.574Z,58.20
2023-03-10T21:51:25.173Z,63.83
2023-03-10T21:54:28.736Z,72.45
2023-03-10T21:57:32.540Z,64.53
2023-03-10T22:00:37.124Z,69.65
2023-03-10T22:03:40.419Z,68.10
2023-03-10T22:06:45.063Z,65.57
2023-03-10T22:09:48.940Z,58.95
2023-03-10T22:12:52.358Z,77.68
2023-03-10T22:15:56.097Z,164.82
2023-03-10T22:18:59.356Z,78.38
2023-03-10T22:22:05.052Z,59.85
2023-03-10T22:25:10.450Z,55.35
2023-03-10T22:28:13.827Z,44.03
2023-03-10T22:31:19.188Z,40.35
2023-03-10T22:34:22.730Z,42.97
2023-03-10T22:37:27.440Z,38.05
2023-03-10T22:40:30.784Z,36.65
2023-03-10T22:43:33.973Z,36.55
2023-03-10T22:46:37.260Z,42.25
2023-03-10T22:49:42.061Z,37.33
2023-03-10T22:52:46.658Z,39.67
2023-03-10T22:55:51.134Z,39.60
2023-03-10T22:58:54.297Z,33.45
2023-03-10T23:01:57.585Z,31.70
2023-03-10T23:05:00.823Z,39.75
2023-03-10T23:08:06.963Z,39.72
2023-03-10T23:11:11.442Z,38.15
2023-03-10T23:14:14.683Z,38.03
2023-03-10T23:17:17.878Z,36.80
2023-03-10T23:20:22.032Z,36.40
2023-03-10T23:23:26.619Z,35.20
2023-03-10T23:26:30.120Z,33.92
2023-03-10T23:29:33.374Z,32.78
2023-03-10T23:32:36.849Z,34.67
2023-03-10T23:35:40.156Z,35.30
2023-03-10T23:38:44.886Z,36.72
2023-03-10T23:41:48.162Z,36.85
2023-03-10T23:44:51.565Z,34.08
2023-03-10T23:47:56.026Z,37.00
2023-03-10T23:51:02.796Z,34.65
2023-03-10T23:54:07.494Z,34.20
2023-03-10T23:57:10.656Z,34.90
